Ashtabula, Ohio
Current Conditions -  °F | °C
As of 10:53 AM on Wednesday 22 Oct 2014 (Local Time) from KHZY Reporting Station
Overcast Overcast  
Wind Chill:   Ceiling: 1700
Heat Index:   Visibility: 10mi
Dew Point:   Wind: 7mph
Humidity: 80%   Direction: 10°N
Pressure: 30.25"   Gusts: NA
Location:  41.89°N, 80.79°W
Report Text: KHZY 221453Z AUTO 01006KT 10SM OVC017 08/05 A3025 RMK AO2 SLP245 T00830050 51015
Loading
Personal Weather Stations






























Interactive Weather Map
Tropical Storm Tracking
New forecast layout! Learn more

10-Day Weather Forecast

Advertisements
Track Severe Weather on mobile